createdAt,value
2023-02-18T00:00:36.840Z,956.97
2023-02-18T00:01:36.826Z,956.98
2023-02-18T00:02:36.902Z,956.91
2023-02-18T00:03:36.862Z,956.96
2023-02-18T00:04:36.783Z,956.91
2023-02-18T00:05:36.791Z,957.02
2023-02-18T00:06:36.786Z,956.95
2023-02-18T00:07:36.738Z,956.94
2023-02-18T00:08:36.724Z,957.05
2023-02-18T00:09:36.715Z,956.94
2023-02-18T00:10:36.717Z,957.02
2023-02-18T00:11:36.687Z,956.93
2023-02-18T00:12:36.684Z,956.93
2023-02-18T00:13:36.654Z,956.94
2023-02-18T00:14:36.644Z,956.94
2023-02-18T00:15:36.658Z,956.93
2023-02-18T00:16:36.639Z,956.95
2023-02-18T00:17:36.594Z,956.92
2023-02-18T00:18:36.605Z,956.89
2023-02-18T00:19:36.579Z,956.92
2023-02-18T00:20:36.562Z,956.91
2023-02-18T00:21:36.577Z,956.94
2023-02-18T00:22:36.528Z,956.96
2023-02-18T00:23:36.520Z,956.93
2023-02-18T00:24:36.500Z,956.94
2023-02-18T00:25:36.486Z,956.92
2023-02-18T00:26:36.469Z,956.9
2023-02-18T00:27:36.458Z,956.91
2023-02-18T00:28:36.449Z,956.9
2023-02-18T00:29:36.438Z,956.9
2023-02-18T00:30:36.431Z,956.84
2023-02-18T00:31:36.569Z,956.86
2023-02-18T00:32:36.388Z,956.79
2023-02-18T00:33:36.373Z,956.81
2023-02-18T00:34:36.359Z,956.78
2023-02-18T00:35:36.346Z,956.83
2023-02-18T00:36:36.328Z,956.8
2023-02-18T00:37:36.343Z,956.81
2023-02-18T00:38:36.302Z,956.81
2023-02-18T00:39:36.296Z,956.82
2023-02-18T00:40:36.272Z,956.78
2023-02-18T00:41:36.269Z,956.83
2023-02-18T00:42:36.245Z,956.81
2023-02-18T00:43:36.237Z,956.8
2023-02-18T00:44:36.219Z,956.89
2023-02-18T00:45:36.208Z,956.92
2023-02-18T00:46:36.268Z,956.89
2023-02-18T00:47:36.176Z,956.87
2023-02-18T00:48:36.160Z,956.89
2023-02-18T00:49:36.164Z,956.89
2023-02-18T00:50:36.135Z,956.91
2023-02-18T00:51:36.119Z,956.9
2023-02-18T00:52:36.104Z,956.9
2023-02-18T00:53:36.115Z,956.91
2023-02-18T00:54:36.078Z,956.89
2023-02-18T00:55:36.067Z,956.9
2023-02-18T00:56:36.047Z,956.87
2023-02-18T00:57:36.035Z,956.93
2023-02-18T00:58:36.022Z,956.9
2023-02-18T00:59:36.011Z,956.96
2023-02-18T01:00:35.994Z,956.83
2023-02-18T01:01:36.052Z,956.87
2023-02-18T01:02:35.964Z,956.81
2023-02-18T01:03:35.960Z,956.81
2023-02-18T01:04:35.957Z,956.83
2023-02-18T01:05:35.925Z,956.84
2023-02-18T01:06:35.909Z,956.87
2023-02-18T01:07:35.899Z,956.85
2023-02-18T01:08:35.881Z,956.79
2023-02-18T01:09:35.896Z,956.84
2023-02-18T01:10:35.854Z,956.77
2023-02-18T01:11:35.844Z,956.87
2023-02-18T01:12:35.827Z,956.84
2023-02-18T01:13:35.813Z,956.88
2023-02-18T01:14:35.806Z,956.89
2023-02-18T01:15:35.786Z,956.9
2023-02-18T01:16:35.925Z,956.81
2023-02-18T01:17:35.758Z,956.85
2023-02-18T01:18:36.127Z,956.86
2023-02-18T01:19:36.105Z,956.79
2023-02-18T01:20:36.093Z,956.82
2023-02-18T01:21:36.082Z,956.81
2023-02-18T01:22:36.065Z,956.85
2023-02-18T01:23:36.052Z,956.86
2023-02-18T01:24:36.040Z,956.84
2023-02-18T01:25:36.076Z,956.84
2023-02-18T01:26:36.019Z,956.85
2023-02-18T01:27:35.995Z,956.89
2023-02-18T01:28:35.983Z,956.87
2023-02-18T01:29:35.968Z,956.88
2023-02-18T01:30:35.980Z,956.85
2023-02-18T01:31:36.114Z,956.84
2023-02-18T01:32:35.926Z,956.82
2023-02-18T01:33:35.908Z,956.83
2023-02-18T01:34:35.895Z,956.87
2023-02-18T01:35:35.881Z,956.88
2023-02-18T01:36:35.875Z,956.9
2023-02-18T01:37:35.850Z,956.81
2023-02-18T01:38:35.835Z,956.8
2023-02-18T01:39:35.822Z,956.8
2023-02-18T01:40:35.808Z,956.79
2023-02-18T01:41:35.970Z,956.79
2023-02-18T01:42:35.777Z,956.79
2023-02-18T01:43:35.761Z,956.72
2023-02-18T01:44:36.168Z,956.77
2023-02-18T01:45:36.153Z,956.81
2023-02-18T01:46:36.160Z,956.77
2023-02-18T01:47:36.124Z,956.77
2023-02-18T01:48:37.559Z,956.81
2023-02-18T01:49:36.094Z,956.78
2023-02-18T01:50:36.083Z,956.71
2023-02-18T01:51:36.067Z,956.74
2023-02-18T01:52:36.056Z,956.73
2023-02-18T01:53:36.044Z,956.68
2023-02-18T01:54:36.026Z,956.69
2023-02-18T01:55:36.011Z,956.68
2023-02-18T01:56:36.002Z,956.71
2023-02-18T01:57:36.007Z,956.72
2023-02-18T01:58:35.969Z,956.68
2023-02-18T01:59:35.976Z,956.73
2023-02-18T02:00:35.960Z,956.68
2023-02-18T02:01:35.960Z,956.65
2023-02-18T02:02:35.910Z,956.66
2023-02-18T02:03:35.897Z,956.59
2023-02-18T02:04:35.888Z,956.64
2023-02-18T02:05:35.871Z,956.58
2023-02-18T02:06:35.852Z,956.6
2023-02-18T02:07:35.839Z,956.62
2023-02-18T02:08:35.823Z,956.56
2023-02-18T02:09:35.817Z,956.57
2023-02-18T02:10:35.798Z,956.57
2023-02-18T02:11:35.785Z,956.53
2023-02-18T02:12:35.867Z,956.56
2023-02-18T02:13:35.790Z,956.57
2023-02-18T02:14:35.750Z,956.46
2023-02-18T02:15:35.746Z,956.51
2023-02-18T02:16:35.758Z,956.53
2023-02-18T02:17:35.706Z,956.46
2023-02-18T02:18:35.684Z,956.56
2023-02-18T02:19:35.670Z,956.56
2023-02-18T02:20:35.659Z,956.56
2023-02-18T02:21:35.642Z,956.59
2023-02-18T02:22:35.629Z,956.61
2023-02-18T02:23:35.614Z,956.59
2023-02-18T02:24:35.601Z,956.59
2023-02-18T02:25:35.589Z,956.6
2023-02-18T02:26:35.569Z,956.57
2023-02-18T02:27:35.557Z,956.56
2023-02-18T02:28:35.545Z,956.52
2023-02-18T02:29:35.555Z,956.55
2023-02-18T02:30:35.666Z,956.58
2023-02-18T02:31:35.536Z,956.52
2023-02-18T02:32:35.490Z,956.55
2023-02-18T02:33:35.480Z,956.51
2023-02-18T02:34:35.461Z,956.57
2023-02-18T02:35:35.443Z,956.56
2023-02-18T02:36:35.433Z,956.63
2023-02-18T02:37:35.416Z,956.67
2023-02-18T02:38:35.404Z,956.63
2023-02-18T02:39:35.389Z,956.77
2023-02-18T02:40:35.372Z,956.74
2023-02-18T02:41:35.361Z,956.79
2023-02-18T02:42:35.355Z,956.74
2023-02-18T02:43:35.332Z,956.73
2023-02-18T02:44:35.315Z,956.81
2023-02-18T02:45:35.398Z,956.83
2023-02-18T02:46:35.686Z,956.83
2023-02-18T02:47:35.565Z,956.86
2023-02-18T02:48:35.552Z,956.8
2023-02-18T02:49:35.537Z,956.84
2023-02-18T02:50:35.527Z,956.8
2023-02-18T02:51:35.511Z,956.85
2023-02-18T02:52:35.597Z,956.73
2023-02-18T02:53:35.486Z,956.77
2023-02-18T02:54:35.545Z,956.77
2023-02-18T02:55:35.454Z,956.73
2023-02-18T02:56:35.443Z,956.74
2023-02-18T02:57:35.425Z,956.77
2023-02-18T02:58:35.417Z,956.77
2023-02-18T02:59:35.404Z,956.72
2023-02-18T03:00:35.384Z,956.67
2023-02-18T03:01:35.404Z,956.61
2023-02-18T03:02:35.357Z,956.69
2023-02-18T03:03:35.351Z,956.73
2023-02-18T03:04:35.329Z,956.67
2023-02-18T03:05:35.317Z,956.7
2023-02-18T03:06:35.300Z,956.75
2023-02-18T03:07:35.286Z,956.69
2023-02-18T03:08:35.273Z,956.71
2023-02-18T03:09:35.267Z,956.71
2023-02-18T03:10:35.249Z,956.64
2023-02-18T03:11:35.228Z,956.69
2023-02-18T03:12:35.225Z,956.72
2023-02-18T03:13:35.203Z,956.78
2023-02-18T03:14:35.189Z,956.76
2023-02-18T03:15:35.174Z,956.75
2023-02-18T03:16:35.264Z,956.76
2023-02-18T03:17:35.170Z,956.76
2023-02-18T03:18:35.132Z,956.69
2023-02-18T03:19:35.120Z,956.69
2023-02-18T03:20:35.108Z,956.7
2023-02-18T03:21:35.101Z,956.64
2023-02-18T03:22:35.094Z,956.67
2023-02-18T03:23:35.074Z,956.68
2023-02-18T03:24:35.058Z,956.67
2023-02-18T03:25:35.047Z,956.63
2023-02-18T03:26:35.032Z,956.59
2023-02-18T03:27:35.016Z,956.54
2023-02-18T03:28:35.007Z,956.55
2023-02-18T03:29:34.992Z,956.54
2023-02-18T03:30:35.048Z,956.5
2023-02-18T03:31:35.074Z,956.62
2023-02-18T03:32:34.947Z,956.6
2023-02-18T03:49:36.265Z,956.58
2023-02-18T03:50:36.235Z,956.55
2023-02-18T03:51:36.207Z,956.56
2023-02-18T03:52:36.192Z,956.52
2023-02-18T03:53:36.170Z,956.52
2023-02-18T03:54:36.155Z,956.55
2023-02-18T03:55:36.138Z,956.56
2023-02-18T03:56:36.122Z,956.61
2023-02-18T03:57:36.106Z,956.66
2023-02-18T03:58:36.086Z,956.6
2023-02-18T03:59:36.073Z,956.61
2023-02-18T04:00:36.053Z,956.62
2023-02-18T04:01:36.134Z,956.65
2023-02-18T04:02:36.026Z,956.66
2023-02-18T04:03:36.010Z,956.65
2023-02-18T04:04:36.034Z,956.65
2023-02-18T04:05:36.009Z,956.65
2023-02-18T04:06:35.963Z,956.64
2023-02-18T04:07:35.945Z,956.65
2023-02-18T04:08:35.932Z,956.66
2023-02-18T04:09:35.920Z,956.65
2023-02-18T04:10:35.901Z,956.66
2023-02-18T04:11:35.888Z,956.63
2023-02-18T04:12:35.873Z,956.66
2023-02-18T04:13:35.858Z,956.62
2023-02-18T04:14:35.844Z,956.53
2023-02-18T04:15:35.829Z,956.59
2023-02-18T04:16:36.757Z,956.6
2023-02-18T04:17:36.691Z,956.56
2023-02-18T04:18:36.672Z,956.54
2023-02-18T04:19:36.653Z,956.6
2023-02-18T04:20:36.640Z,956.55
2023-02-18T04:21:36.655Z,956.57
2023-02-18T04:22:36.619Z,956.54
2023-02-18T04:23:36.595Z,956.62
2023-02-18T04:24:36.580Z,956.64
2023-02-18T04:25:36.570Z,956.6
2023-02-18T04:26:36.550Z,956.69
2023-02-18T04:27:36.550Z,956.61
2023-02-18T04:28:36.535Z,956.68
2023-02-18T04:29:36.513Z,956.66
2023-02-18T04:30:36.582Z,956.64
2023-02-18T04:31:36.566Z,956.62
2023-02-18T04:32:36.483Z,956.54
2023-02-18T04:33:36.455Z,956.62
2023-02-18T04:34:36.442Z,956.57
2023-02-18T04:35:36.427Z,956.58
2023-02-18T04:36:36.413Z,956.56
2023-02-18T04:37:36.428Z,956.55
2023-02-18T04:38:36.383Z,956.53
2023-02-18T04:39:36.371Z,956.54
2023-02-18T04:40:36.354Z,956.53
2023-02-18T04:41:36.342Z,956.51
2023-02-18T04:42:36.329Z,956.48
2023-02-18T04:43:36.310Z,956.49
2023-02-18T04:44:36.297Z,956.52
2023-02-18T04:45:36.280Z,956.51
2023-02-18T04:46:36.317Z,956.5
2023-02-18T04:47:36.255Z,956.43
2023-02-18T04:48:36.251Z,956.41
2023-02-18T04:49:36.228Z,956.4
2023-02-18T04:50:36.212Z,956.45
2023-02-18T04:51:36.199Z,956.47
2023-02-18T04:52:36.982Z,956.43
2023-02-18T04:53:37.002Z,956.5
2023-02-18T04:54:36.953Z,956.54
2023-02-18T04:55:36.936Z,956.5
2023-02-18T04:56:36.923Z,956.41
2023-02-18T04:57:36.918Z,956.44
2023-02-18T04:58:36.902Z,956.43
2023-02-18T04:59:36.880Z,956.52
2023-02-18T05:00:36.866Z,956.4
2023-02-18T05:01:36.882Z,956.42
2023-02-18T05:02:36.839Z,956.33
2023-02-18T05:03:36.824Z,956.34
2023-02-18T05:04:36.811Z,956.31
2023-02-18T05:05:36.795Z,956.33
2023-02-18T05:06:36.792Z,956.34
2023-02-18T05:07:36.769Z,956.3
2023-02-18T05:08:36.761Z,956.27
2023-02-18T05:09:36.770Z,956.34
2023-02-18T05:10:36.732Z,956.33
2023-02-18T05:11:36.720Z,956.21
2023-02-18T05:12:36.702Z,956.3
2023-02-18T05:13:36.695Z,956.29
2023-02-18T05:14:36.683Z,956.19
2023-02-18T05:15:36.674Z,956.28
2023-02-18T05:16:36.645Z,956.22
2023-02-18T05:17:36.631Z,956.21
2023-02-18T05:18:36.631Z,956.2
2023-02-18T05:19:36.608Z,956.16
2023-02-18T05:20:36.590Z,956.18
2023-02-18T05:21:36.574Z,956.16
2023-02-18T05:22:36.562Z,956.14
2023-02-18T05:23:36.551Z,956.16
2023-02-18T05:24:36.534Z,956.14
2023-02-18T05:25:36.543Z,956.17
2023-02-18T05:26:36.506Z,956.15
2023-02-18T05:27:36.489Z,956.11
2023-02-18T05:28:36.483Z,956.11
2023-02-18T05:29:36.462Z,956.09
2023-02-18T05:30:36.469Z,956.09
2023-02-18T05:31:36.499Z,956.1
2023-02-18T05:32:36.436Z,956.09
2023-02-18T05:33:36.407Z,956.08
2023-02-18T05:34:36.392Z,956.09
2023-02-18T05:35:36.382Z,956
2023-02-18T05:36:36.364Z,956.07
2023-02-18T05:37:36.350Z,956.07
2023-02-18T05:38:36.337Z,956.05
2023-02-18T05:39:36.321Z,956.03
2023-02-18T05:40:36.308Z,956.15
2023-02-18T05:41:36.319Z,956.05
2023-02-18T05:42:36.280Z,956.09
2023-02-18T05:43:36.265Z,956.09
2023-02-18T05:44:36.251Z,956.05
2023-02-18T05:45:36.236Z,956.03
2023-02-18T05:46:36.246Z,955.97
2023-02-18T05:47:36.210Z,955.98
2023-02-18T05:48:36.196Z,956
2023-02-18T05:49:36.187Z,955.97
2023-02-18T05:50:36.167Z,955.89
2023-02-18T05:51:36.152Z,955.92
2023-02-18T05:52:36.137Z,955.88
2023-02-18T05:53:36.127Z,955.93
2023-02-18T05:54:36.114Z,955.87
2023-02-18T05:55:36.101Z,955.84
2023-02-18T05:56:36.089Z,955.8
2023-02-18T05:57:36.116Z,955.83
2023-02-18T05:58:36.055Z,955.8
2023-02-18T05:59:36.044Z,955.8
2023-02-18T06:00:36.026Z,955.78
2023-02-18T06:01:36.015Z,955.76
2023-02-18T06:02:36.054Z,955.78
2023-02-18T06:03:35.995Z,955.79
2023-02-18T06:04:35.971Z,955.82
2023-02-18T06:05:35.966Z,955.82
2023-02-18T06:06:35.940Z,955.82
2023-02-18T06:07:35.929Z,955.86
2023-02-18T06:08:35.914Z,955.8
2023-02-18T06:09:35.903Z,955.92
2023-02-18T06:10:35.886Z,955.81
2023-02-18T06:11:35.872Z,955.83
2023-02-18T06:12:35.859Z,955.81
2023-02-18T06:13:35.869Z,955.84
2023-02-18T06:14:35.828Z,955.81
2023-02-18T06:15:35.817Z,955.87
2023-02-18T06:16:35.800Z,955.88
2023-02-18T06:17:35.795Z,955.82
2023-02-18T06:18:35.774Z,955.88
2023-02-18T06:19:35.762Z,955.86
2023-02-18T06:20:35.752Z,955.94
2023-02-18T06:21:35.755Z,955.87
2023-02-18T06:22:35.717Z,955.8
2023-02-18T06:23:35.706Z,955.84
2023-02-18T06:24:35.689Z,955.82
2023-02-18T06:25:35.675Z,955.82
2023-02-18T06:26:35.662Z,955.78
2023-02-18T06:27:35.645Z,955.7
2023-02-18T06:28:35.647Z,955.68
2023-02-18T06:29:35.642Z,955.75
2023-02-18T06:30:35.659Z,955.7
2023-02-18T06:31:35.690Z,955.74
2023-02-18T06:32:35.579Z,955.76
2023-02-18T06:33:35.559Z,955.69
2023-02-18T06:34:35.547Z,955.72
2023-02-18T06:35:35.528Z,955.73
2023-02-18T06:36:35.523Z,955.74
2023-02-18T06:37:35.503Z,955.67
2023-02-18T06:38:35.498Z,955.65
2023-02-18T06:39:35.472Z,955.61
2023-02-18T06:40:35.474Z,955.68
2023-02-18T06:41:35.445Z,955.67
2023-02-18T06:42:35.434Z,955.68
2023-02-18T06:43:35.423Z,955.66
2023-02-18T06:44:37.568Z,955.62
2023-02-18T06:45:35.432Z,955.59
2023-02-18T06:46:35.441Z,955.55
2023-02-18T06:47:35.365Z,955.59
2023-02-18T06:48:35.350Z,955.6
2023-02-18T06:49:35.336Z,955.58
2023-02-18T06:50:35.319Z,955.55
2023-02-18T06:51:35.306Z,955.55
2023-02-18T06:52:35.293Z,955.52
2023-02-18T06:53:35.276Z,955.45
2023-02-18T06:54:35.264Z,955.38
2023-02-18T06:55:35.248Z,955.36
2023-02-18T06:56:35.238Z,955.35
2023-02-18T06:57:35.237Z,955.39
2023-02-18T06:58:35.208Z,955.36
2023-02-18T06:59:35.193Z,955.34
2023-02-18T07:00:35.218Z,955.36
2023-02-18T07:01:35.189Z,955.31
2023-02-18T07:02:35.155Z,955.33
2023-02-18T07:03:35.172Z,955.34
2023-02-18T07:04:35.127Z,955.39
2023-02-18T07:05:35.112Z,955.43
2023-02-18T07:06:35.099Z,955.38
2023-02-18T07:07:35.084Z,955.31
2023-02-18T07:08:35.070Z,955.38
2023-02-18T07:09:35.057Z,955.34
2023-02-18T07:10:35.071Z,955.3
2023-02-18T07:11:35.030Z,955.31
2023-02-18T07:12:35.020Z,955.26
2023-02-18T07:13:35.010Z,955.31
2023-02-18T07:14:34.988Z,955.34
2023-02-18T07:15:34.978Z,955.34
2023-02-18T07:16:34.979Z,955.3
2023-02-18T07:17:34.972Z,955.33
2023-02-18T07:18:34.946Z,955.31
2023-02-18T07:19:34.922Z,955.24
2023-02-18T07:20:34.920Z,955.23
2023-02-18T07:21:34.895Z,955.22
2023-02-18T07:22:34.882Z,955.25
2023-02-18T07:23:34.866Z,955.26
2023-02-18T07:24:34.854Z,955.3
2023-02-18T07:25:34.855Z,955.33
2023-02-18T07:26:34.823Z,955.29
2023-02-18T07:27:34.812Z,955.31
2023-02-18T07:28:34.796Z,955.29
2023-02-18T07:29:34.787Z,955.26
2023-02-18T07:30:34.842Z,955.26
2023-02-18T07:31:34.853Z,955.28
2023-02-18T07:32:34.742Z,955.27
2023-02-18T07:33:34.755Z,955.21
2023-02-18T07:34:34.718Z,955.16
2023-02-18T07:35:34.703Z,955.17
2023-02-18T07:36:34.690Z,955.28
2023-02-18T07:37:34.676Z,955.14
2023-02-18T07:38:34.661Z,955.09
2023-02-18T07:39:34.652Z,955.12
2023-02-18T07:40:34.652Z,955.11
2023-02-18T07:41:34.625Z,955.04
2023-02-18T07:42:34.607Z,954.99
2023-02-18T07:43:34.603Z,955.04
2023-02-18T07:44:34.581Z,955.01
2023-02-18T07:45:34.606Z,954.91
2023-02-18T07:46:34.555Z,955.01
2023-02-18T07:47:34.549Z,954.82
2023-02-18T07:48:34.527Z,954.95
2023-02-18T07:49:34.543Z,954.85
2023-02-18T07:50:34.515Z,954.92
2023-02-18T07:51:34.492Z,954.88
2023-02-18T07:52:34.473Z,954.81
2023-02-18T07:53:34.466Z,954.85
2023-02-18T07:54:34.451Z,954.81
2023-02-18T07:55:34.436Z,954.9
2023-02-18T07:56:34.421Z,954.91
2023-02-18T07:57:34.414Z,954.88
2023-02-18T07:58:34.401Z,954.83
2023-02-18T07:59:34.388Z,954.75
2023-02-18T08:00:34.371Z,954.85
2023-02-18T08:01:34.356Z,954.77
2023-02-18T08:02:34.340Z,954.86
2023-02-18T08:03:34.333Z,954.81
2023-02-18T08:04:34.317Z,954.72
2023-02-18T08:05:34.329Z,954.76
2023-02-18T08:06:34.291Z,954.74
2023-02-18T08:07:34.274Z,954.72
2023-02-18T08:08:36.578Z,954.74
2023-02-18T08:09:34.249Z,954.75
2023-02-18T08:10:34.238Z,954.85
2023-02-18T08:11:34.223Z,954.81
2023-02-18T08:12:34.214Z,954.77
2023-02-18T08:13:34.203Z,954.74
2023-02-18T08:14:34.187Z,954.72
2023-02-18T08:15:34.173Z,954.75
2023-02-18T08:16:34.219Z,954.77
2023-02-18T08:17:34.152Z,954.72
2023-02-18T08:18:34.140Z,954.74
2023-02-18T08:19:34.126Z,954.72
2023-02-18T08:20:34.115Z,954.77
2023-02-18T08:21:34.125Z,954.75
2023-02-18T08:22:34.087Z,954.74
2023-02-18T08:23:34.084Z,954.62
2023-02-18T08:24:34.066Z,954.69
2023-02-18T08:25:34.053Z,954.65
2023-02-18T08:26:34.045Z,954.74
2023-02-18T08:27:34.023Z,954.7
2023-02-18T08:28:34.016Z,954.64
2023-02-18T08:29:33.995Z,954.62
2023-02-18T08:30:34.069Z,954.71
2023-02-18T08:31:34.083Z,954.74
2023-02-18T08:32:33.961Z,954.68
2023-02-18T08:33:33.946Z,954.72
2023-02-18T08:34:33.943Z,954.82
2023-02-18T08:35:33.919Z,954.71
2023-02-18T08:36:33.911Z,954.73
2023-02-18T08:37:52.648Z,954.63
2023-02-18T08:38:33.884Z,954.71
2023-02-18T08:39:33.867Z,954.62
2023-02-18T08:40:33.856Z,954.59
2023-02-18T08:41:33.946Z,954.57
2023-02-18T08:42:33.836Z,954.54
2023-02-18T08:43:33.817Z,954.47
2023-02-18T08:44:33.812Z,954.53
2023-02-18T08:45:35.774Z,954.56
2023-02-18T08:46:34.736Z,954.56
2023-02-18T08:48:13.313Z,954.57
2023-02-18T08:48:33.753Z,954.64
2023-02-18T08:49:33.741Z,954.53
2023-02-18T08:50:33.732Z,954.55
2023-02-18T08:51:33.721Z,954.53
2023-02-18T08:52:33.703Z,954.51
2023-02-18T08:53:33.712Z,954.41
2023-02-18T08:54:33.678Z,954.41
2023-02-18T08:55:33.661Z,954.36
2023-02-18T08:56:33.651Z,954.38
2023-02-18T08:57:33.637Z,954.31
2023-02-18T08:58:33.624Z,954.43
2023-02-18T08:59:33.615Z,954.38
2023-02-18T09:00:33.606Z,954.36
2023-02-18T09:01:33.741Z,954.33
2023-02-18T09:02:33.573Z,954.26
2023-02-18T09:03:33.564Z,954.35
2023-02-18T09:04:33.587Z,954.38
2023-02-18T09:05:33.535Z,954.38
2023-02-18T09:06:33.543Z,954.34
2023-02-18T09:07:33.510Z,954.3
2023-02-18T09:08:33.500Z,954.27
2023-02-18T09:09:33.605Z,954.42
2023-02-18T09:10:33.474Z,954.38
2023-02-18T09:11:33.461Z,954.37
2023-02-18T09:12:33.449Z,954.25
2023-02-18T09:13:33.480Z,954.24
2023-02-18T09:14:33.426Z,954.25
2023-02-18T09:15:33.424Z,954.25
2023-02-18T09:16:33.398Z,954.27
2023-02-18T09:17:33.389Z,954.23
2023-02-18T09:18:33.406Z,954.19
2023-02-18T09:19:33.365Z,954.11
2023-02-18T09:20:33.346Z,954.19
2023-02-18T09:21:33.340Z,954.23
2023-02-18T09:22:33.322Z,954.3
2023-02-18T09:23:33.310Z,954.2
2023-02-18T09:24:33.294Z,954.18
2023-02-18T09:25:33.312Z,954.26
2023-02-18T09:26:33.270Z,954.32
2023-02-18T09:27:33.260Z,954.19
2023-02-18T09:28:33.248Z,954.19
2023-02-18T09:29:33.234Z,954.26
2023-02-18T09:30:33.235Z,954.19
2023-02-18T09:31:33.310Z,954.19
2023-02-18T09:32:34.926Z,954.33
2023-02-18T09:33:33.186Z,954.21
2023-02-18T09:34:33.171Z,954.18
2023-02-18T09:35:33.160Z,954.23
2023-02-18T09:36:33.157Z,954.29
2023-02-18T09:37:33.141Z,954.31
2023-02-18T09:38:33.127Z,954.24
2023-02-18T09:39:33.110Z,954.29
2023-02-18T09:40:33.103Z,954.18
2023-02-18T09:41:33.110Z,954.24
2023-02-18T09:42:33.080Z,954.12
2023-02-18T09:43:33.062Z,954.24
2023-02-18T09:44:33.043Z,954.34
2023-02-18T09:45:33.033Z,954.24
2023-02-18T09:46:33.083Z,954.33
2023-02-18T09:47:33.009Z,954.44
2023-02-18T09:48:32.997Z,954.27
2023-02-18T09:49:32.979Z,954.29
2023-02-18T09:50:32.970Z,954.25
2023-02-18T09:51:32.964Z,954.22
2023-02-18T09:52:32.944Z,954.32
2023-02-18T09:53:32.930Z,954.24
2023-02-18T09:54:32.920Z,954.25
2023-02-18T09:55:32.909Z,954.24
2023-02-18T09:56:32.905Z,954.2
2023-02-18T09:57:32.904Z,954.28
2023-02-18T09:58:32.873Z,954.15
2023-02-18T09:59:32.855Z,954.23
2023-02-18T10:00:32.848Z,954.27
2023-02-18T10:01:32.891Z,954.15
2023-02-18T10:02:32.818Z,954.34
2023-02-18T10:03:32.805Z,954.23
2023-02-18T10:04:32.794Z,954.25
2023-02-18T10:05:32.783Z,954.36
2023-02-18T10:06:32.773Z,954.28
2023-02-18T10:07:32.757Z,954.35
2023-02-18T10:08:32.744Z,954.17
2023-02-18T10:09:32.729Z,954.26
2023-02-18T10:10:32.721Z,954.22
2023-02-18T10:11:32.716Z,954.23
2023-02-18T10:12:33.699Z,954.13
2023-02-18T10:13:32.719Z,954.24
2023-02-18T10:14:32.662Z,954.23
2023-02-18T10:15:32.658Z,954.17
2023-02-18T10:16:32.805Z,954.29
2023-02-18T10:17:32.658Z,954.28
2023-02-18T10:18:32.688Z,954.23
2023-02-18T10:19:32.609Z,954.2
2023-02-18T10:20:32.588Z,954.21
2023-02-18T10:21:32.577Z,954.17
2023-02-18T10:22:32.561Z,954.11
2023-02-18T10:23:32.547Z,954.21
2023-02-18T10:24:32.559Z,954.06
2023-02-18T10:25:32.520Z,954.09
2023-02-18T10:26:32.509Z,954.09
2023-02-18T10:27:32.498Z,954.02
2023-02-18T10:28:32.485Z,954.02
2023-02-18T10:29:32.492Z,954.11
2023-02-18T10:30:32.526Z,954.07
2023-02-18T10:31:32.663Z,954.03
2023-02-18T10:32:32.436Z,954.16
2023-02-18T10:33:32.428Z,954.07
2023-02-18T10:34:32.410Z,954.1
2023-02-18T10:35:32.393Z,954.04
2023-02-18T10:36:32.390Z,954.06
2023-02-18T10:37:32.365Z,954.03
2023-02-18T10:38:32.375Z,954.04
2023-02-18T10:39:32.344Z,954.01
2023-02-18T10:40:32.326Z,953.94
2023-02-18T10:41:32.314Z,954.06
2023-02-18T10:42:32.304Z,954.07
2023-02-18T10:43:32.290Z,954.04
2023-02-18T10:44:32.279Z,954.09
2023-02-18T10:45:32.285Z,954.01
2023-02-18T10:46:32.274Z,953.96
2023-02-18T10:47:32.236Z,953.94
2023-02-18T10:48:32.224Z,953.99
2023-02-18T10:49:32.250Z,953.89
2023-02-18T10:50:32.199Z,954.11
2023-02-18T10:51:32.187Z,953.92
2023-02-18T10:52:32.170Z,953.92
2023-02-18T10:53:32.165Z,953.79
2023-02-18T10:54:32.145Z,953.82
2023-02-18T10:55:32.132Z,953.83
2023-02-18T10:56:32.143Z,953.86
2023-02-18T10:57:32.108Z,953.83
2023-02-18T10:58:32.098Z,953.86
2023-02-18T10:59:32.088Z,953.89
2023-02-18T11:00:32.071Z,953.99
2023-02-18T11:01:32.148Z,953.92
2023-02-18T11:02:32.065Z,953.83
2023-02-18T11:03:32.028Z,953.72
2023-02-18T11:04:32.069Z,953.74
2023-02-18T11:05:31.999Z,953.75
2023-02-18T11:06:31.987Z,953.69
2023-02-18T11:07:31.976Z,953.73
2023-02-18T11:08:31.960Z,953.82
2023-02-18T11:09:31.963Z,953.8
2023-02-18T11:10:31.932Z,953.78
2023-02-18T11:11:31.922Z,953.7
2023-02-18T11:12:31.906Z,953.7
2023-02-18T11:13:31.895Z,953.67
2023-02-18T11:14:31.878Z,953.6
2023-02-18T11:15:31.878Z,953.61
2023-02-18T11:16:31.852Z,953.62
2023-02-18T11:17:31.866Z,953.52
2023-02-18T11:18:31.823Z,953.7
2023-02-18T11:19:31.814Z,953.54
2023-02-18T11:20:31.806Z,953.55
2023-02-18T11:21:31.790Z,953.59
2023-02-18T11:22:31.773Z,953.61
2023-02-18T11:23:31.764Z,953.58
2023-02-18T11:24:31.746Z,953.54
2023-02-18T11:25:31.732Z,953.53
2023-02-18T11:26:31.719Z,953.48
2023-02-18T11:27:32.605Z,953.51
2023-02-18T11:28:32.592Z,953.44
2023-02-18T11:29:32.580Z,953.52
2023-02-18T11:30:32.584Z,953.51
2023-02-18T11:31:32.615Z,953.46
2023-02-18T11:32:32.548Z,953.54
2023-02-18T11:33:32.551Z,953.5
2023-02-18T11:34:32.514Z,953.45
2023-02-18T11:35:32.499Z,953.46
2023-02-18T11:36:32.489Z,953.43
2023-02-18T11:37:32.476Z,953.38
2023-02-18T11:38:32.461Z,953.42
2023-02-18T11:39:32.446Z,953.37
2023-02-18T11:40:32.436Z,953.39
2023-02-18T11:41:32.423Z,953.37
2023-02-18T11:42:32.411Z,953.42
2023-02-18T11:43:32.397Z,953.35
2023-02-18T11:44:32.380Z,953.4
2023-02-18T11:45:32.369Z,953.34
2023-02-18T11:46:32.403Z,953.31
2023-02-18T11:47:32.343Z,953.3
2023-02-18T11:48:32.329Z,953.25
2023-02-18T11:49:32.354Z,953.35
2023-02-18T11:50:32.302Z,953.41
2023-02-18T11:51:32.288Z,953.41
2023-02-18T11:52:32.277Z,953.34
2023-02-18T11:53:32.258Z,953.37
2023-02-18T11:54:32.256Z,953.33
2023-02-18T11:55:32.233Z,953.36
2023-02-18T11:56:32.225Z,953.28
2023-02-18T11:57:32.213Z,953.33
2023-02-18T11:58:32.200Z,953.34
2023-02-18T11:59:32.182Z,953.26
2023-02-18T12:00:32.167Z,953.3
2023-02-18T12:01:32.155Z,953.31
2023-02-18T12:02:32.144Z,953.29
2023-02-18T12:03:34.067Z,953.32
2023-02-18T12:04:32.117Z,953.3
2023-02-18T12:05:32.159Z,953.25
2023-02-18T12:06:32.091Z,953.23
2023-02-18T12:07:32.077Z,953.15
2023-02-18T12:08:32.062Z,953.24
2023-02-18T12:09:32.054Z,953.24
2023-02-18T12:10:32.037Z,953.32
2023-02-18T12:11:32.063Z,953.24
2023-02-18T12:12:32.012Z,953.22
2023-02-18T12:13:31.999Z,953.13
2023-02-18T12:14:31.981Z,953.25
2023-02-18T12:15:31.968Z,953.19
2023-02-18T12:16:31.966Z,953.22
2023-02-18T12:17:31.940Z,953.26
2023-02-18T12:18:31.925Z,953.17
2023-02-18T12:19:31.910Z,953.21
2023-02-18T12:20:31.901Z,953.23
2023-02-18T12:21:31.918Z,953.32
2023-02-18T12:22:31.869Z,953.27
2023-02-18T12:23:31.858Z,953.09
2023-02-18T12:24:31.842Z,953.27
2023-02-18T12:25:31.832Z,953.31
2023-02-18T12:26:31.816Z,953.19
2023-02-18T12:27:31.802Z,953.17
2023-02-18T12:28:31.786Z,953.13
2023-02-18T12:29:31.771Z,953.11
2023-02-18T12:30:31.814Z,953.24
2023-02-18T12:31:31.840Z,953.1
2023-02-18T12:32:31.732Z,953.04
2023-02-18T12:33:31.717Z,953.15
2023-02-18T12:34:31.704Z,953.09
2023-02-18T12:35:31.690Z,953.17
2023-02-18T12:36:31.679Z,952.89
2023-02-18T12:37:31.686Z,953.1
2023-02-18T12:38:31.656Z,953
2023-02-18T12:39:31.645Z,952.99
2023-02-18T12:40:31.665Z,953
2023-02-18T12:41:31.610Z,952.98
2023-02-18T12:42:31.592Z,953.01
2023-02-18T12:43:31.588Z,952.95
2023-02-18T12:44:31.573Z,952.96
2023-02-18T12:45:31.556Z,952.98
2023-02-18T12:46:31.555Z,952.97